Mahdia, Tunisia
Current Conditions -  °F | °C
As of 9:30 AM on Friday 24 Oct 2014 (Local Time) from DTMB Reporting Station
Clear Clear  
Wind Chill: 72°   Ceiling: Unl
Heat Index: 72°   Visibility: NA
Dew Point: 59°   Wind: 18mph
Humidity: 64%   Direction: 300°WNW
Pressure: 29.91"   Gusts: NA
Location:  35.5°N, 11.06°E
Report Text: DTMB 240830Z AUTO 30016KT 280V340 NCD 22/15 Q1013
Loading
Personal Weather Stations






























Interactive Weather Map
Tropical Storm Tracking
New forecast layout! Learn more

10-Day Weather Forecast

Advertisements
Track Severe Weather on mobile